sensor_id;sensor_type;location;lat;lon;timestamp;pressure;altitude;pressure_sealevel;temperature;humidity
72285;BME280;60220;53.552;10.092;2022-08-06T00:01:08;102038.19;;;16.75;62.08
72285;BME280;60220;53.552;10.092;2022-08-06T00:03:35;102043.00;;;16.52;62.08
72285;BME280;60220;53.552;10.092;2022-08-06T00:06:01;102042.06;;;16.55;62.32
72285;BME280;60220;53.552;10.092;2022-08-06T00:08:29;102053.13;;;16.26;63.72
72285;BME280;60220;53.552;10.092;2022-08-06T00:10:54;102049.25;;;16.48;62.16
72285;BME280;60220;53.552;10.092;2022-08-06T00:13:22;102051.75;;;16.57;62.26
72285;BME280;60220;53.552;10.092;2022-08-06T00:15:47;102046.59;;;16.48;61.70
72285;BME280;60220;53.552;10.092;2022-08-06T00:18:17;102048.16;;;16.63;61.87
72285;BME280;60220;53.552;10.092;2022-08-06T00:20:45;102049.28;;;16.47;62.30
72285;BME280;60220;53.552;10.092;2022-08-06T00:23:11;102051.38;;;16.25;62.74
72285;BME280;60220;53.552;10.092;2022-08-06T00:25:36;102056.44;;;16.40;62.50
72285;BME280;60220;53.552;10.092;2022-08-06T00:28:02;102057.53;;;16.28;62.58
72285;BME280;60220;53.552;10.092;2022-08-06T00:30:27;102055.31;;;16.55;61.30
72285;BME280;60220;53.552;10.092;2022-08-06T00:32:53;102059.31;;;16.82;61.27
72285;BME280;60220;53.552;10.092;2022-08-06T00:35:20;102058.59;;;16.72;60.92
72285;BME280;60220;53.552;10.092;2022-08-06T00:37:45;102063.44;;;16.44;62.57
72285;BME280;60220;53.552;10.092;2022-08-06T00:40:11;102071.66;;;16.27;63.37
72285;BME280;60220;53.552;10.092;2022-08-06T00:42:37;102077.34;;;16.02;63.76
72285;BME280;60220;53.552;10.092;2022-08-06T00:45:06;102073.81;;;16.59;63.19
72285;BME280;60220;53.552;10.092;2022-08-06T00:47:33;102073.28;;;16.38;62.95
72285;BME280;60220;53.552;10.092;2022-08-06T00:49:58;102080.44;;;16.29;62.95
72285;BME280;60220;53.552;10.092;2022-08-06T00:52:24;102078.38;;;16.50;63.00
72285;BME280;60220;53.552;10.092;2022-08-06T00:54:49;102088.25;;;16.40;63.33
72285;BME280;60220;53.552;10.092;2022-08-06T00:57:17;102093.63;;;16.34;63.50
72285;BME280;60220;53.552;10.092;2022-08-06T00:59:42;102095.69;;;16.15;63.54
72285;BME280;60220;53.552;10.092;2022-08-06T01:02:08;102092.00;;;16.27;63.72
72285;BME280;60220;53.552;10.092;2022-08-06T01:04:33;102101.22;;;16.57;61.86
72285;BME280;60220;53.552;10.092;2022-08-06T01:06:58;102101.91;;;16.72;61.98
72285;BME280;60220;53.552;10.092;2022-08-06T01:09:25;102106.63;;;16.52;62.45
72285;BME280;60220;53.552;10.092;2022-08-06T01:11:51;102106.03;;;16.32;63.87
72285;BME280;60220;53.552;10.092;2022-08-06T01:14:16;102111.47;;;16.23;63.78
72285;BME280;60220;53.552;10.092;2022-08-06T01:16:54;102114.41;;;16.03;64.55
72285;BME280;60220;53.552;10.092;2022-08-06T01:25:03;102116.19;;;16.62;62.45
72285;BME280;60220;53.552;10.092;2022-08-06T01:30:34;102120.38;;;16.19;63.87
72285;BME280;60220;53.552;10.092;2022-08-06T01:33:15;102130.03;;;16.23;64.25
72285;BME280;60220;53.552;10.092;2022-08-06T01:35:51;102125.56;;;16.25;63.77
72285;BME280;60220;53.552;10.092;2022-08-06T01:40:50;102127.97;;;16.42;63.33
72285;BME280;60220;53.552;10.092;2022-08-06T01:43:19;102127.00;;;16.47;62.98
72285;BME280;60220;53.552;10.092;2022-08-06T01:45:46;102136.66;;;16.51;63.08
72285;BME280;60220;53.552;10.092;2022-08-06T01:48:18;102143.50;;;16.08;64.75
72285;BME280;60220;53.552;10.092;2022-08-06T01:50:47;102135.50;;;16.11;64.35
72285;BME280;60220;53.552;10.092;2022-08-06T01:53:16;102134.13;;;15.81;65.19
72285;BME280;60220;53.552;10.092;2022-08-06T01:55:45;102135.13;;;15.69;65.37
72285;BME280;60220;53.552;10.092;2022-08-06T01:58:19;102133.63;;;16.19;64.23
72285;BME280;60220;53.552;10.092;2022-08-06T02:00:50;102135.81;;;15.88;65.79
72285;BME280;60220;53.552;10.092;2022-08-06T02:03:24;102134.53;;;16.18;64.55
72285;BME280;60220;53.552;10.092;2022-08-06T02:05:54;102135.06;;;15.75;65.90
72285;BME280;60220;53.552;10.092;2022-08-06T02:08:24;102139.81;;;16.18;64.11
72285;BME280;60220;53.552;10.092;2022-08-06T02:10:55;102137.31;;;16.68;62.12
72285;BME280;60220;53.552;10.092;2022-08-06T02:13:30;102133.06;;;16.54;62.51
72285;BME280;60220;53.552;10.092;2022-08-06T02:15:56;102134.06;;;16.48;62.61
72285;BME280;60220;53.552;10.092;2022-08-06T02:18:23;102137.03;;;16.25;63.79
72285;BME280;60220;53.552;10.092;2022-08-06T02:20:51;102142.28;;;15.61;66.36
72285;BME280;60220;53.552;10.092;2022-08-06T02:23:24;102141.47;;;15.56;66.67
72285;BME280;60220;53.552;10.092;2022-08-06T02:25:55;102140.81;;;15.31;68.08
72285;BME280;60220;53.552;10.092;2022-08-06T02:28:24;102143.31;;;15.48;67.01
72285;BME280;60220;53.552;10.092;2022-08-06T02:30:53;102142.47;;;15.43;67.26
72285;BME280;60220;53.552;10.092;2022-08-06T02:33:19;102144.94;;;15.63;67.05
72285;BME280;60220;53.552;10.092;2022-08-06T02:35:49;102134.47;;;15.49;66.13
72285;BME280;60220;53.552;10.092;2022-08-06T02:38:28;102138.38;;;15.13;68.23
72285;BME280;60220;53.552;10.092;2022-08-06T02:41:09;102146.78;;;15.50;66.88
72285;BME280;60220;53.552;10.092;2022-08-06T02:43:44;102144.84;;;14.77;69.69
72285;BME280;60220;53.552;10.092;2022-08-06T02:47:29;102146.41;;;14.99;69.35
72285;BME280;60220;53.552;10.092;2022-08-06T02:49:37;102151.25;;;14.47;71.29
72285;BME280;60220;53.552;10.092;2022-08-06T02:52:13;102148.63;;;14.40;71.14
72285;BME280;60220;53.552;10.092;2022-08-06T02:55:02;102159.22;;;14.31;71.97
72285;BME280;60220;53.552;10.092;2022-08-06T02:57:33;102156.59;;;14.38;71.53
72285;BME280;60220;53.552;10.092;2022-08-06T03:00:07;102154.03;;;14.17;72.20
72285;BME280;60220;53.552;10.092;2022-08-06T03:02:35;102160.13;;;14.25;72.25
72285;BME280;60220;53.552;10.092;2022-08-06T03:05:05;102155.78;;;14.19;72.47
72285;BME280;60220;53.552;10.092;2022-08-06T03:07:36;102166.06;;;14.65;71.80
72285;BME280;60220;53.552;10.092;2022-08-06T03:10:04;102159.25;;;14.28;72.13
72285;BME280;60220;53.552;10.092;2022-08-06T03:12:33;102159.84;;;14.78;71.04
72285;BME280;60220;53.552;10.092;2022-08-06T03:15:01;102162.19;;;15.10;68.94
72285;BME280;60220;53.552;10.092;2022-08-06T03:17:28;102170.25;;;14.96;69.49
72285;BME280;60220;53.552;10.092;2022-08-06T03:20:00;102171.47;;;14.50;72.33
72285;BME280;60220;53.552;10.092;2022-08-06T03:22:27;102182.09;;;14.44;72.24
72285;BME280;60220;53.552;10.092;2022-08-06T03:25:02;102175.72;;;14.71;71.39
72285;BME280;60220;53.552;10.092;2022-08-06T03:27:29;102181.63;;;15.07;69.16
72285;BME280;60220;53.552;10.092;2022-08-06T03:29:56;102165.31;;;15.50;68.08
72285;BME280;60220;53.552;10.092;2022-08-06T03:32:23;102174.81;;;14.76;69.84
72285;BME280;60220;53.552;10.092;2022-08-06T03:34:55;102188.19;;;14.53;71.14
72285;BME280;60220;53.552;10.092;2022-08-06T03:37:26;102180.09;;;14.78;71.41
72285;BME280;60220;53.552;10.092;2022-08-06T03:39:53;102189.09;;;14.54;70.90
72285;BME280;60220;53.552;10.092;2022-08-06T03:42:22;102188.03;;;14.76;71.29
72285;BME280;60220;53.552;10.092;2022-08-06T03:44:48;102201.34;;;14.64;72.01
72285;BME280;60220;53.552;10.092;2022-08-06T03:47:22;102184.19;;;15.15;68.75
72285;BME280;60220;53.552;10.092;2022-08-06T03:49:59;102190.41;;;15.09;69.20
72285;BME280;60220;53.552;10.092;2022-08-06T03:52:33;102194.88;;;15.00;69.61
72285;BME280;60220;53.552;10.092;2022-08-06T03:55:06;102200.25;;;14.94;69.08
72285;BME280;60220;53.552;10.092;2022-08-06T03:57:38;102191.00;;;15.43;67.17
72285;BME280;60220;53.552;10.092;2022-08-06T04:00:05;102197.13;;;15.47;67.13
72285;BME280;60220;53.552;10.092;2022-08-06T04:02:36;102199.56;;;14.69;70.30
72285;BME280;60220;53.552;10.092;2022-08-06T04:05:03;102200.22;;;14.98;68.70
72285;BME280;60220;53.552;10.092;2022-08-06T04:07:32;102204.06;;;14.52;70.17
72285;BME280;60220;53.552;10.092;2022-08-06T04:10:01;102202.56;;;15.32;67.95
72285;BME280;60220;53.552;10.092;2022-08-06T04:12:27;102208.22;;;14.89;68.99
72285;BME280;60220;53.552;10.092;2022-08-06T04:14:56;102216.34;;;14.59;71.13
72285;BME280;60220;53.552;10.092;2022-08-06T04:17:24;102215.56;;;14.31;72.56
72285;BME280;60220;53.552;10.092;2022-08-06T04:19:54;102218.22;;;14.37;72.11
72285;BME280;60220;53.552;10.092;2022-08-06T04:22:20;102215.63;;;14.22;72.03
72285;BME280;60220;53.552;10.092;2022-08-06T04:24:48;102220.88;;;14.27;71.79
72285;BME280;60220;53.552;10.092;2022-08-06T04:27:16;102221.81;;;14.15;72.90
72285;BME280;60220;53.552;10.092;2022-08-06T04:29:42;102217.44;;;14.06;73.31
72285;BME280;60220;53.552;10.092;2022-08-06T04:32:13;102224.47;;;14.13;73.48
72285;BME280;60220;53.552;10.092;2022-08-06T04:34:45;102222.69;;;14.18;73.40
72285;BME280;60220;53.552;10.092;2022-08-06T04:37:12;102224.38;;;14.30;73.58
72285;BME280;60220;53.552;10.092;2022-08-06T04:39:38;102235.88;;;14.23;73.97
72285;BME280;60220;53.552;10.092;2022-08-06T04:42:08;102243.53;;;14.79;71.02
72285;BME280;60220;53.552;10.092;2022-08-06T04:44:39;102245.16;;;14.98;70.35
72285;BME280;60220;53.552;10.092;2022-08-06T04:47:05;102242.59;;;14.88;70.53
72285;BME280;60220;53.552;10.092;2022-08-06T04:49:36;102249.47;;;15.12;70.09
72285;BME280;60220;53.552;10.092;2022-08-06T04:52:01;102255.56;;;15.20;70.18
72285;BME280;60220;53.552;10.092;2022-08-06T04:54:27;102265.78;;;15.67;68.28
72285;BME280;60220;53.552;10.092;2022-08-06T04:56:52;102270.03;;;15.80;67.33
72285;BME280;60220;53.552;10.092;2022-08-06T04:59:18;102262.97;;;15.80;67.45
72285;BME280;60220;53.552;10.092;2022-08-06T05:01:43;102265.34;;;15.13;69.14
72285;BME280;60220;53.552;10.092;2022-08-06T05:04:09;102265.03;;;15.48;68.50
72285;BME280;60220;53.552;10.092;2022-08-06T05:06:46;102265.00;;;16.35;65.82
72285;BME280;60220;53.552;10.092;2022-08-06T05:09:21;102274.28;;;15.98;66.00
72285;BME280;60220;53.552;10.092;2022-08-06T05:11:51;102277.84;;;16.68;64.14
72285;BME280;60220;53.552;10.092;2022-08-06T05:14:27;102283.19;;;16.65;64.39
72285;BME280;60220;53.552;10.092;2022-08-06T05:16:56;102287.59;;;15.91;67.07
72285;BME280;60220;53.552;10.092;2022-08-06T05:19:33;102291.78;;;16.09;65.20
72285;BME280;60220;53.552;10.092;2022-08-06T05:22:00;102301.41;;;15.22;69.06
72285;BME280;60220;53.552;10.092;2022-08-06T05:24:28;102300.78;;;15.94;65.76
72285;BME280;60220;53.552;10.092;2022-08-06T05:26:56;102305.06;;;14.99;70.25
72285;BME280;60220;53.552;10.092;2022-08-06T05:29:21;102304.03;;;16.21;65.60
72285;BME280;60220;53.552;10.092;2022-08-06T05:31:47;102308.75;;;15.93;65.79
72285;BME280;60220;53.552;10.092;2022-08-06T05:34:13;102304.47;;;15.81;65.30
72285;BME280;60220;53.552;10.092;2022-08-06T05:36:41;102312.94;;;15.13;67.89
72285;BME280;60220;53.552;10.092;2022-08-06T05:39:11;102318.28;;;15.02;69.31
72285;BME280;60220;53.552;10.092;2022-08-06T05:41:39;102309.97;;;15.56;67.80
72285;BME280;60220;53.552;10.092;2022-08-06T05:44:08;102310.59;;;16.64;64.70
72285;BME280;60220;53.552;10.092;2022-08-06T05:46:36;102317.69;;;16.62;63.43
72285;BME280;60220;53.552;10.092;2022-08-06T05:49:07;102328.19;;;16.70;64.61
72285;BME280;60220;53.552;10.092;2022-08-06T05:51:44;102333.28;;;16.87;62.64
72285;BME280;60220;53.552;10.092;2022-08-06T05:54:27;102322.44;;;15.40;67.04
72285;BME280;60220;53.552;10.092;2022-08-06T05:57:02;102325.00;;;16.39;66.03
72285;BME280;60220;53.552;10.092;2022-08-06T05:59:33;102330.25;;;17.12;63.87
72285;BME280;60220;53.552;10.092;2022-08-06T06:02:00;102335.75;;;16.99;62.08
72285;BME280;60220;53.552;10.092;2022-08-06T06:04:28;102337.56;;;16.95;61.86
72285;BME280;60220;53.552;10.092;2022-08-06T06:06:56;102338.53;;;16.90;61.45
72285;BME280;60220;53.552;10.092;2022-08-06T06:09:21;102343.75;;;16.96;61.20
72285;BME280;60220;53.552;10.092;2022-08-06T06:11:50;102343.81;;;16.93;62.29
72285;BME280;60220;53.552;10.092;2022-08-06T06:14:40;102346.13;;;16.48;63.20
72285;BME280;60220;53.552;10.092;2022-08-06T06:22:35;102354.91;;;17.19;60.66
72285;BME280;60220;53.552;10.092;2022-08-06T06:25:08;102354.97;;;17.14;60.90
72285;BME280;60220;53.552;10.092;2022-08-06T06:27:52;102349.94;;;16.98;60.75
72285;BME280;60220;53.552;10.092;2022-08-06T06:30:28;102352.44;;;16.36;61.72
72285;BME280;60220;53.552;10.092;2022-08-06T06:33:09;102358.34;;;17.27;60.31
72285;BME280;60220;53.552;10.092;2022-08-06T06:35:56;102358.38;;;17.24;60.79
72285;BME280;60220;53.552;10.092;2022-08-06T06:38:34;102355.72;;;17.26;59.86
72285;BME280;60220;53.552;10.092;2022-08-06T06:41:16;102358.78;;;16.98;61.87
72285;BME280;60220;53.552;10.092;2022-08-06T06:44:08;102357.47;;;17.25;61.98
72285;BME280;60220;53.552;10.092;2022-08-06T06:46:49;102354.00;;;17.20;59.76
72285;BME280;60220;53.552;10.092;2022-08-06T06:49:37;102356.13;;;16.97;60.47
72285;BME280;60220;53.552;10.092;2022-08-06T06:52:16;102352.34;;;16.44;62.18
72285;BME280;60220;53.552;10.092;2022-08-06T06:54:48;102357.84;;;17.59;59.81
72285;BME280;60220;53.552;10.092;2022-08-06T06:57:20;102356.78;;;18.20;59.04
72285;BME280;60220;53.552;10.092;2022-08-06T06:59:51;102354.56;;;19.63;55.38
72285;BME280;60220;53.552;10.092;2022-08-06T07:02:23;102358.44;;;18.73;55.24
72285;BME280;60220;53.552;10.092;2022-08-06T07:04:56;102354.44;;;19.32;54.16
72285;BME280;60220;53.552;10.092;2022-08-06T07:07:23;102364.09;;;18.53;56.69
72285;BME280;60220;53.552;10.092;2022-08-06T07:09:50;102362.53;;;19.64;53.88
72285;BME280;60220;53.552;10.092;2022-08-06T07:12:19;102363.97;;;19.77;52.27
72285;BME280;60220;53.552;10.092;2022-08-06T07:14:48;102360.75;;;19.65;52.21
72285;BME280;60220;53.552;10.092;2022-08-06T07:17:15;102367.47;;;20.13;52.09
72285;BME280;60220;53.552;10.092;2022-08-06T07:19:45;102378.94;;;21.10;49.95
72285;BME280;60220;53.552;10.092;2022-08-06T07:22:12;102375.81;;;20.95;50.35
72285;BME280;60220;53.552;10.092;2022-08-06T07:24:41;102376.63;;;20.68;50.75
72285;BME280;60220;53.552;10.092;2022-08-06T07:27:08;102386.72;;;19.57;53.58
72285;BME280;60220;53.552;10.092;2022-08-06T07:29:34;102383.91;;;20.92;49.28
72285;BME280;60220;53.552;10.092;2022-08-06T07:32:07;102380.28;;;20.95;49.44
72285;BME280;60220;53.552;10.092;2022-08-06T07:34:41;102381.59;;;20.51;51.18
72285;BME280;60220;53.552;10.092;2022-08-06T07:37:09;102379.78;;;20.17;51.05
72285;BME280;60220;53.552;10.092;2022-08-06T07:39:39;102384.47;;;20.74;50.15
72285;BME280;60220;53.552;10.092;2022-08-06T07:42:08;102379.44;;;20.63;50.89
72285;BME280;60220;53.552;10.092;2022-08-06T07:44:42;102399.88;;;21.25;49.21
72285;BME280;60220;53.552;10.092;2022-08-06T07:47:08;102394.84;;;19.86;52.57
72285;BME280;60220;53.552;10.092;2022-08-06T07:49:40;102397.94;;;19.31;53.27
72285;BME280;60220;53.552;10.092;2022-08-06T07:52:12;102396.50;;;19.16;53.94
72285;BME280;60220;53.552;10.092;2022-08-06T07:54:39;102394.97;;;19.45;54.74
72285;BME280;60220;53.552;10.092;2022-08-06T07:57:08;102397.19;;;19.24;55.58
72285;BME280;60220;53.552;10.092;2022-08-06T07:59:39;102400.84;;;18.79;57.26
72285;BME280;60220;53.552;10.092;2022-08-06T08:02:07;102407.47;;;18.58;57.47
72285;BME280;60220;53.552;10.092;2022-08-06T08:04:35;102402.25;;;18.54;57.66
72285;BME280;60220;53.552;10.092;2022-08-06T08:07:21;102397.66;;;18.62;57.81
72285;BME280;60220;53.552;10.092;2022-08-06T08:09:52;102398.91;;;18.42;57.38
72285;BME280;60220;53.552;10.092;2022-08-06T08:12:18;102407.72;;;18.89;55.81
72285;BME280;60220;53.552;10.092;2022-08-06T08:14:46;102401.16;;;19.47;56.56
72285;BME280;60220;53.552;10.092;2022-08-06T08:17:15;102407.94;;;20.29;55.34
72285;BME280;60220;53.552;10.092;2022-08-06T08:19:42;102407.88;;;20.95;51.73
72285;BME280;60220;53.552;10.092;2022-08-06T08:22:11;102404.63;;;20.84;50.56
72285;BME280;60220;53.552;10.092;2022-08-06T08:24:43;102412.50;;;20.89;50.47
72285;BME280;60220;53.552;10.092;2022-08-06T08:27:10;102413.50;;;19.51;51.60
72285;BME280;60220;53.552;10.092;2022-08-06T08:29:39;102414.25;;;21.21;49.94
72285;BME280;60220;53.552;10.092;2022-08-06T08:32:06;102414.41;;;21.44;48.10
72285;BME280;60220;53.552;10.092;2022-08-06T08:34:35;102414.13;;;21.79;48.28
72285;BME280;60220;53.552;10.092;2022-08-06T08:37:01;102421.06;;;21.31;47.35
72285;BME280;60220;53.552;10.092;2022-08-06T08:39:27;102419.09;;;21.64;45.30
72285;BME280;60220;53.552;10.092;2022-08-06T08:44:30;102422.16;;;21.79;42.98
72285;BME280;60220;53.552;10.092;2022-08-06T08:46:59;102416.22;;;21.13;45.16
72285;BME280;60220;53.552;10.092;2022-08-06T08:49:38;102414.91;;;22.60;43.71
72285;BME280;60220;53.552;10.092;2022-08-06T08:52:14;102416.69;;;20.97;46.44
72285;BME280;60220;53.552;10.092;2022-08-06T08:54:45;102426.47;;;21.83;45.50
72285;BME280;60220;53.552;10.092;2022-08-06T08:57:15;102422.16;;;20.30;48.76
72285;BME280;60220;53.552;10.092;2022-08-06T08:59:44;102426.22;;;21.37;45.30
72285;BME280;60220;53.552;10.092;2022-08-06T09:02:13;102428.63;;;22.00;45.01
72285;BME280;60220;53.552;10.092;2022-08-06T09:04:44;102432.69;;;21.84;46.37
72285;BME280;60220;53.552;10.092;2022-08-06T09:07:09;102421.50;;;22.50;41.29
72285;BME280;60220;53.552;10.092;2022-08-06T09:09:37;102436.97;;;21.89;42.14
72285;BME280;60220;53.552;10.092;2022-08-06T09:12:06;102433.13;;;22.49;44.07
72285;BME280;60220;53.552;10.092;2022-08-06T09:14:33;102430.41;;;22.26;43.57
72285;BME280;60220;53.552;10.092;2022-08-06T09:17:03;102433.81;;;22.05;42.43
72285;BME280;60220;53.552;10.092;2022-08-06T09:19:29;102435.38;;;20.97;44.75
72285;BME280;60220;53.552;10.092;2022-08-06T09:21:59;102443.13;;;21.65;46.50
72285;BME280;60220;53.552;10.092;2022-08-06T09:24:25;102430.38;;;21.73;44.46
72285;BME280;60220;53.552;10.092;2022-08-06T09:27:05;102432.22;;;20.18;47.35
72285;BME280;60220;53.552;10.092;2022-08-06T09:29:31;102429.53;;;21.16;47.04
72285;BME280;60220;53.552;10.092;2022-08-06T09:32:00;102438.56;;;21.97;45.21
72285;BME280;60220;53.552;10.092;2022-08-06T09:34:37;102437.41;;;19.12;49.44
72285;BME280;60220;53.552;10.092;2022-08-06T09:37:03;102429.94;;;20.03;45.68
72285;BME280;60220;53.552;10.092;2022-08-06T09:39:36;102435.88;;;21.12;43.16
72285;BME280;60220;53.552;10.092;2022-08-06T09:42:06;102449.00;;;21.76;45.55
72285;BME280;60220;53.552;10.092;2022-08-06T09:44:32;102453.44;;;21.48;44.29
72285;BME280;60220;53.552;10.092;2022-08-06T09:47:01;102443.78;;;22.00;43.99
72285;BME280;60220;53.552;10.092;2022-08-06T09:49:27;102446.59;;;21.67;45.86
72285;BME280;60220;53.552;10.092;2022-08-06T09:52:16;102448.78;;;19.97;46.83
72285;BME280;60220;53.552;10.092;2022-08-06T09:54:42;102448.25;;;19.43;49.46
72285;BME280;60220;53.552;10.092;2022-08-06T09:57:10;102452.31;;;18.78;50.40
72285;BME280;60220;53.552;10.092;2022-08-06T09:59:47;102449.53;;;18.36;51.44
72285;BME280;60220;53.552;10.092;2022-08-06T10:02:14;102451.16;;;18.43;52.32
72285;BME280;60220;53.552;10.092;2022-08-06T10:04:41;102452.59;;;19.07;49.83
72285;BME280;60220;53.552;10.092;2022-08-06T10:07:07;102455.66;;;19.69;45.76
72285;BME280;60220;53.552;10.092;2022-08-06T10:09:35;102442.13;;;20.13;43.96
72285;BME280;60220;53.552;10.092;2022-08-06T10:12:16;102451.59;;;20.91;45.12
72285;BME280;60220;53.552;10.092;2022-08-06T10:14:42;102446.47;;;21.15;42.97
72285;BME280;60220;53.552;10.092;2022-08-06T10:19:39;102440.69;;;20.36;44.99
72285;BME280;60220;53.552;10.092;2022-08-06T10:22:13;102455.91;;;19.97;46.53
72285;BME280;60220;53.552;10.092;2022-08-06T10:24:45;102451.72;;;19.85;49.77
72285;BME280;60220;53.552;10.092;2022-08-06T10:27:16;102452.78;;;20.13;47.42
72285;BME280;60220;53.552;10.092;2022-08-06T10:30:03;102450.38;;;20.72;46.84
72285;BME280;60220;53.552;10.092;2022-08-06T10:35:22;102452.84;;;21.09;47.57
72285;BME280;60220;53.552;10.092;2022-08-06T10:37:59;102446.13;;;21.27;46.52
72285;BME280;60220;53.552;10.092;2022-08-06T10:40:26;102445.94;;;21.02;45.90
72285;BME280;60220;53.552;10.092;2022-08-06T10:42:52;102444.84;;;21.08;44.65
72285;BME280;60220;53.552;10.092;2022-08-06T10:45:20;102442.13;;;21.40;43.44
72285;BME280;60220;53.552;10.092;2022-08-06T10:47:48;102441.84;;;21.49;43.77
72285;BME280;60220;53.552;10.092;2022-08-06T10:50:13;102442.16;;;21.96;42.45
72285;BME280;60220;53.552;10.092;2022-08-06T10:52:43;102451.63;;;21.50;43.28
72285;BME280;60220;53.552;10.092;2022-08-06T10:55:09;102443.31;;;20.70;43.11
72285;BME280;60220;53.552;10.092;2022-08-06T10:57:38;102446.78;;;21.33;42.54
72285;BME280;60220;53.552;10.092;2022-08-06T11:00:05;102453.53;;;20.86;46.12
72285;BME280;60220;53.552;10.092;2022-08-06T11:05:36;102458.22;;;20.10;49.56
72285;BME280;60220;53.552;10.092;2022-08-06T11:11:23;102449.03;;;19.50;46.10
72285;BME280;60220;53.552;10.092;2022-08-06T11:13:52;102450.69;;;19.92;48.26
72285;BME280;60220;53.552;10.092;2022-08-06T11:16:27;102445.53;;;20.18;46.18
72285;BME280;60220;53.552;10.092;2022-08-06T11:19:03;102434.53;;;20.66;45.87
72285;BME280;60220;53.552;10.092;2022-08-06T11:24:04;102425.09;;;20.84;40.98
72285;BME280;60220;53.552;10.092;2022-08-06T11:26:39;102433.66;;;20.96;42.22
72285;BME280;60220;53.552;10.092;2022-08-06T11:29:10;102440.59;;;20.39;43.64
72285;BME280;60220;53.552;10.092;2022-08-06T11:31:47;102425.81;;;21.21;41.23
72285;BME280;60220;53.552;10.092;2022-08-06T11:34:15;102425.66;;;21.26;42.29
72285;BME280;60220;53.552;10.092;2022-08-06T11:36:46;102425.59;;;21.27;41.75
72285;BME280;60220;53.552;10.092;2022-08-06T11:39:12;102422.09;;;20.96;41.44
72285;BME280;60220;53.552;10.092;2022-08-06T11:41:58;102418.59;;;20.92;43.21
72285;BME280;60220;53.552;10.092;2022-08-06T11:44:29;102419.91;;;21.09;41.62
72285;BME280;60220;53.552;10.092;2022-08-06T11:52:09;102415.88;;;20.95;42.65
72285;BME280;60220;53.552;10.092;2022-08-06T11:55:01;102412.91;;;21.04;40.82
72285;BME280;60220;53.552;10.092;2022-08-06T11:57:31;102424.06;;;21.48;41.42
72285;BME280;60220;53.552;10.092;2022-08-06T12:07:34;102419.19;;;21.03;42.19
72285;BME280;60220;53.552;10.092;2022-08-06T12:23:02;102418.63;;;20.28;39.57
72285;BME280;60220;53.552;10.092;2022-08-06T12:25:37;102421.81;;;20.74;40.13
72285;BME280;60220;53.552;10.092;2022-08-06T12:28:08;102418.69;;;20.91;40.09
72285;BME280;60220;53.552;10.092;2022-08-06T12:33:08;102425.66;;;20.95;40.14
72285;BME280;60220;53.552;10.092;2022-08-06T12:35:35;102420.88;;;20.77;38.21
72285;BME280;60220;53.552;10.092;2022-08-06T12:38:01;102421.34;;;20.60;39.64
72285;BME280;60220;53.552;10.092;2022-08-06T12:40:26;102427.03;;;21.08;38.53
72285;BME280;60220;53.552;10.092;2022-08-06T12:45:28;102416.19;;;20.20;38.34
72285;BME280;60220;53.552;10.092;2022-08-06T12:48:00;102422.28;;;21.19;37.48
72285;BME280;60220;53.552;10.092;2022-08-06T12:50:28;102424.22;;;20.83;37.18
72285;BME280;60220;53.552;10.092;2022-08-06T12:55:32;102419.31;;;21.30;35.73
72285;BME280;60220;53.552;10.092;2022-08-06T12:57:59;102427.16;;;21.62;35.06
72285;BME280;60220;53.552;10.092;2022-08-06T13:00:25;102418.75;;;21.74;36.16
72285;BME280;60220;53.552;10.092;2022-08-06T13:02:54;102421.53;;;21.99;34.21
72285;BME280;60220;53.552;10.092;2022-08-06T13:05:25;102415.47;;;21.92;35.37
72285;BME280;60220;53.552;10.092;2022-08-06T13:07:59;102411.91;;;21.94;34.47
72285;BME280;60220;53.552;10.092;2022-08-06T13:10:25;102419.47;;;21.79;34.44
72285;BME280;60220;53.552;10.092;2022-08-06T13:13:00;102417.59;;;22.09;33.39
72285;BME280;60220;53.552;10.092;2022-08-06T13:15:28;102421.88;;;22.15;33.47
72285;BME280;60220;53.552;10.092;2022-08-06T13:18:08;102423.69;;;21.60;31.17
72285;BME280;60220;53.552;10.092;2022-08-06T13:20:45;102425.66;;;21.54;33.33
72285;BME280;60220;53.552;10.092;2022-08-06T13:23:13;102420.75;;;21.11;35.02
72285;BME280;60220;53.552;10.092;2022-08-06T13:25:46;102416.47;;;21.34;35.82
72285;BME280;60220;53.552;10.092;2022-08-06T13:28:17;102412.50;;;21.47;35.44
72285;BME280;60220;53.552;10.092;2022-08-06T13:30:44;102405.84;;;21.33;34.85
72285;BME280;60220;53.552;10.092;2022-08-06T13:33:20;102411.53;;;20.91;34.77
72285;BME280;60220;53.552;10.092;2022-08-06T13:35:50;102412.38;;;21.23;35.19
72285;BME280;60220;53.552;10.092;2022-08-06T13:38:32;102403.56;;;21.76;34.10
72285;BME280;60220;53.552;10.092;2022-08-06T13:40:58;102413.38;;;21.48;35.37
72285;BME280;60220;53.552;10.092;2022-08-06T13:43:40;102406.47;;;21.69;33.62
72285;BME280;60220;53.552;10.092;2022-08-06T13:48:35;102402.09;;;21.92;34.79
72285;BME280;60220;53.552;10.092;2022-08-06T13:51:01;102406.72;;;21.87;35.13
72285;BME280;60220;53.552;10.092;2022-08-06T13:53:31;102411.44;;;21.53;34.81
72285;BME280;60220;53.552;10.092;2022-08-06T13:55:56;102407.66;;;21.60;35.67
72285;BME280;60220;53.552;10.092;2022-08-06T13:58:24;102405.88;;;21.59;37.37
72285;BME280;60220;53.552;10.092;2022-08-06T14:00:50;102408.22;;;21.70;37.21
72285;BME280;60220;53.552;10.092;2022-08-06T14:03:15;102409.25;;;21.66;36.42
72285;BME280;60220;53.552;10.092;2022-08-06T14:05:41;102414.41;;;21.44;36.54